Reading, Illinois
Current Conditions -  °F | °C
As of 3:35 PM on Thursday 23 Oct 2014 (Local Time) from KPNT Reporting Station
Scattered Clouds Scattered Clouds  
Wind Chill: 62°   Ceiling: Unl
Heat Index: 62°   Visibility: 10mi
Dew Point: 43°   Wind: 9mph
Humidity: 50%   Direction: 190°S
Pressure: 30.11"   Gusts: NA
Location:  41.0465°N, 88.8725°W
Report Text: KPNT 232035Z AUTO 19008KT 10SM SCT110 17/06 A3011 RMK AO2 T01670062
Loading
Personal Weather Stations






























Interactive Weather Map
Tropical Storm Tracking
New forecast layout! Learn more

10-Day Weather Forecast

Advertisements
Track Severe Weather on mobile